sensor_id;sensor_type;location;lat;lon;timestamp;temperature;humidity
648;DHT22;75315;49.006;9.060;2024-02-04T00:00:44;7.80;99.90
648;DHT22;75315;49.006;9.060;2024-02-04T00:03:12;7.80;1.00
648;DHT22;75315;49.006;9.060;2024-02-04T00:05:39;7.80;1.00
648;DHT22;75315;49.006;9.060;2024-02-04T00:08:06;7.80;1.00
648;DHT22;75315;49.006;9.060;2024-02-04T00:10:34;7.80;1.00
648;DHT22;75315;49.006;9.060;2024-02-04T00:13:01;7.60;1.00
648;DHT22;75315;49.006;9.060;2024-02-04T00:15:29;7.60;84.40
648;DHT22;75315;49.006;9.060;2024-02-04T00:17:56;7.70;99.90
648;DHT22;75315;49.006;9.060;2024-02-04T00:20:24;7.70;99.90
648;DHT22;75315;49.006;9.060;2024-02-04T00:22:52;7.70;99.90
648;DHT22;75315;49.006;9.060;2024-02-04T00:25:20;7.70;99.90
648;DHT22;75315;49.006;9.060;2024-02-04T00:27:47;7.60;99.90
648;DHT22;75315;49.006;9.060;2024-02-04T00:30:15;7.60;99.90
648;DHT22;75315;49.006;9.060;2024-02-04T00:32:42;7.70;99.90
648;DHT22;75315;49.006;9.060;2024-02-04T00:35:10;7.70;99.90
648;DHT22;75315;49.006;9.060;2024-02-04T00:37:38;7.60;1.00
648;DHT22;75315;49.006;9.060;2024-02-04T00:40:06;7.60;99.90
648;DHT22;75315;49.006;9.060;2024-02-04T00:42:34;7.60;99.90
648;DHT22;75315;49.006;9.060;2024-02-04T00:45:01;7.70;99.90
648;DHT22;75315;49.006;9.060;2024-02-04T00:47:28;7.60;99.90
648;DHT22;75315;49.006;9.060;2024-02-04T00:49:56;7.80;99.90
648;DHT22;75315;49.006;9.060;2024-02-04T00:52:23;7.70;99.90
648;DHT22;75315;49.006;9.060;2024-02-04T00:54:51;7.70;99.90
648;DHT22;75315;49.006;9.060;2024-02-04T00:57:18;7.70;99.90
648;DHT22;75315;49.006;9.060;2024-02-04T00:59:46;7.80;99.90
648;DHT22;75315;49.006;9.060;2024-02-04T01:02:13;7.70;99.90
648;DHT22;75315;49.006;9.060;2024-02-04T01:04:41;7.70;99.90
648;DHT22;75315;49.006;9.060;2024-02-04T01:07:08;7.70;99.90
648;DHT22;75315;49.006;9.060;2024-02-04T01:09:36;7.80;99.90
648;DHT22;75315;49.006;9.060;2024-02-04T01:12:03;7.70;99.90
648;DHT22;75315;49.006;9.060;2024-02-04T01:14:31;7.70;99.90
648;DHT22;75315;49.006;9.060;2024-02-04T01:16:58;7.70;99.90
648;DHT22;75315;49.006;9.060;2024-02-04T01:19:26;7.70;99.90
648;DHT22;75315;49.006;9.060;2024-02-04T01:21:53;7.70;99.90
648;DHT22;75315;49.006;9.060;2024-02-04T01:24:21;7.70;99.90
648;DHT22;75315;49.006;9.060;2024-02-04T01:26:48;7.70;1.00
648;DHT22;75315;49.006;9.060;2024-02-04T01:29:15;7.70;1.00
648;DHT22;75315;49.006;9.060;2024-02-04T01:31:43;7.70;1.00
648;DHT22;75315;49.006;9.060;2024-02-04T01:34:10;7.70;1.00
648;DHT22;75315;49.006;9.060;2024-02-04T01:36:38;7.60;1.00
648;DHT22;75315;49.006;9.060;2024-02-04T01:39:06;7.70;1.00
648;DHT22;75315;49.006;9.060;2024-02-04T01:41:34;7.80;1.00
648;DHT22;75315;49.006;9.060;2024-02-04T01:44:02;7.70;1.00
648;DHT22;75315;49.006;9.060;2024-02-04T01:46:29;7.70;1.00
648;DHT22;75315;49.006;9.060;2024-02-04T01:48:57;7.80;99.90
648;DHT22;75315;49.006;9.060;2024-02-04T01:51:24;7.70;99.90
648;DHT22;75315;49.006;9.060;2024-02-04T01:53:52;7.80;99.90
648;DHT22;75315;49.006;9.060;2024-02-04T01:56:19;7.70;99.90
648;DHT22;75315;49.006;9.060;2024-02-04T01:58:48;7.70;99.90
648;DHT22;75315;49.006;9.060;2024-02-04T02:01:16;7.70;99.90
648;DHT22;75315;49.006;9.060;2024-02-04T02:03:43;7.70;1.00
648;DHT22;75315;49.006;9.060;2024-02-04T02:06:11;7.70;1.00
648;DHT22;75315;49.006;9.060;2024-02-04T02:08:41;7.70;1.00
648;DHT22;75315;49.006;9.060;2024-02-04T02:11:13;7.70;1.00
648;DHT22;75315;49.006;9.060;2024-02-04T02:13:49;7.70;1.00
648;DHT22;75315;49.006;9.060;2024-02-04T02:16:21;7.70;1.00
648;DHT22;75315;49.006;9.060;2024-02-04T02:18:56;7.70;99.90
648;DHT22;75315;49.006;9.060;2024-02-04T02:21:47;7.70;99.90
648;DHT22;75315;49.006;9.060;2024-02-04T02:26:51;7.70;1.00
648;DHT22;75315;49.006;9.060;2024-02-04T02:29:20;7.70;1.00
648;DHT22;75315;49.006;9.060;2024-02-04T02:31:47;7.80;1.00
648;DHT22;75315;49.006;9.060;2024-02-04T02:34:16;7.80;1.00
648;DHT22;75315;49.006;9.060;2024-02-04T02:36:59;7.70;1.00
648;DHT22;75315;49.006;9.060;2024-02-04T02:39:31;7.70;1.00
648;DHT22;75315;49.006;9.060;2024-02-04T02:41:59;7.70;1.00
648;DHT22;75315;49.006;9.060;2024-02-04T02:44:28;7.70;1.00
648;DHT22;75315;49.006;9.060;2024-02-04T02:46:57;7.70;1.00
648;DHT22;75315;49.006;9.060;2024-02-04T02:49:25;7.80;99.90
648;DHT22;75315;49.006;9.060;2024-02-04T02:51:53;7.80;99.90
648;DHT22;75315;49.006;9.060;2024-02-04T02:54:20;7.80;99.90
648;DHT22;75315;49.006;9.060;2024-02-04T02:56:48;7.70;99.90
648;DHT22;75315;49.006;9.060;2024-02-04T02:59:16;7.70;99.90
648;DHT22;75315;49.006;9.060;2024-02-04T03:01:43;7.80;99.90
648;DHT22;75315;49.006;9.060;2024-02-04T03:04:11;7.80;99.90
648;DHT22;75315;49.006;9.060;2024-02-04T03:06:39;7.90;99.90
648;DHT22;75315;49.006;9.060;2024-02-04T03:09:06;7.80;99.90
648;DHT22;75315;49.006;9.060;2024-02-04T03:11:34;7.80;99.90
648;DHT22;75315;49.006;9.060;2024-02-04T03:14:03;7.80;99.90
648;DHT22;75315;49.006;9.060;2024-02-04T03:16:31;7.80;99.90
648;DHT22;75315;49.006;9.060;2024-02-04T03:18:58;7.80;99.90
648;DHT22;75315;49.006;9.060;2024-02-04T03:21:26;7.90;99.90
648;DHT22;75315;49.006;9.060;2024-02-04T03:23:53;7.90;99.90
648;DHT22;75315;49.006;9.060;2024-02-04T03:26:21;7.90;99.90
648;DHT22;75315;49.006;9.060;2024-02-04T03:28:49;7.80;99.90
648;DHT22;75315;49.006;9.060;2024-02-04T03:31:21;7.80;99.90
648;DHT22;75315;49.006;9.060;2024-02-04T03:33:49;7.90;99.90
648;DHT22;75315;49.006;9.060;2024-02-04T03:36:23;7.80;99.90
648;DHT22;75315;49.006;9.060;2024-02-04T03:38:51;7.80;99.90
648;DHT22;75315;49.006;9.060;2024-02-04T03:41:19;7.80;99.90
648;DHT22;75315;49.006;9.060;2024-02-04T03:43:46;7.80;99.90
648;DHT22;75315;49.006;9.060;2024-02-04T03:46:15;7.80;99.90
648;DHT22;75315;49.006;9.060;2024-02-04T03:48:43;7.80;99.90
648;DHT22;75315;49.006;9.060;2024-02-04T03:51:18;7.80;99.90
648;DHT22;75315;49.006;9.060;2024-02-04T03:53:47;7.90;99.90
648;DHT22;75315;49.006;9.060;2024-02-04T03:56:15;7.80;99.90
648;DHT22;75315;49.006;9.060;2024-02-04T03:58:43;7.80;99.90
648;DHT22;75315;49.006;9.060;2024-02-04T04:01:11;7.80;99.90
648;DHT22;75315;49.006;9.060;2024-02-04T04:03:43;7.80;99.90
648;DHT22;75315;49.006;9.060;2024-02-04T04:06:11;7.80;99.90
648;DHT22;75315;49.006;9.060;2024-02-04T04:08:38;7.80;99.90
648;DHT22;75315;49.006;9.060;2024-02-04T04:11:10;7.80;48.60
648;DHT22;75315;49.006;9.060;2024-02-04T04:13:38;7.80;21.70
648;DHT22;75315;49.006;9.060;2024-02-04T04:16:05;7.90;7.60
648;DHT22;75315;49.006;9.060;2024-02-04T04:18:33;7.90;1.00
648;DHT22;75315;49.006;9.060;2024-02-04T04:21:01;7.90;1.00
648;DHT22;75315;49.006;9.060;2024-02-04T04:23:28;7.90;1.00
648;DHT22;75315;49.006;9.060;2024-02-04T04:25:56;7.90;1.00
648;DHT22;75315;49.006;9.060;2024-02-04T04:28:23;7.90;1.00
648;DHT22;75315;49.006;9.060;2024-02-04T04:30:50;7.90;1.00
648;DHT22;75315;49.006;9.060;2024-02-04T04:33:18;7.90;1.00
648;DHT22;75315;49.006;9.060;2024-02-04T04:35:46;7.90;1.00
648;DHT22;75315;49.006;9.060;2024-02-04T04:38:13;8.00;1.00
648;DHT22;75315;49.006;9.060;2024-02-04T04:40:41;8.00;1.00
648;DHT22;75315;49.006;9.060;2024-02-04T04:43:08;8.00;1.00
648;DHT22;75315;49.006;9.060;2024-02-04T04:45:36;8.00;1.00
648;DHT22;75315;49.006;9.060;2024-02-04T04:48:03;8.00;1.00
648;DHT22;75315;49.006;9.060;2024-02-04T04:50:32;8.00;1.00
648;DHT22;75315;49.006;9.060;2024-02-04T04:52:59;8.00;1.00
648;DHT22;75315;49.006;9.060;2024-02-04T04:55:26;8.00;1.00
648;DHT22;75315;49.006;9.060;2024-02-04T04:57:54;8.00;1.00
648;DHT22;75315;49.006;9.060;2024-02-04T05:00:21;8.00;1.00
648;DHT22;75315;49.006;9.060;2024-02-04T05:02:49;8.00;1.00
648;DHT22;75315;49.006;9.060;2024-02-04T05:05:16;8.10;1.00
648;DHT22;75315;49.006;9.060;2024-02-04T05:07:44;8.00;1.00
648;DHT22;75315;49.006;9.060;2024-02-04T05:10:14;8.10;1.00
648;DHT22;75315;49.006;9.060;2024-02-04T05:12:41;8.10;1.00
648;DHT22;75315;49.006;9.060;2024-02-04T05:15:09;8.10;1.00
648;DHT22;75315;49.006;9.060;2024-02-04T05:17:36;8.20;1.00
648;DHT22;75315;49.006;9.060;2024-02-04T05:20:04;8.20;1.00
648;DHT22;75315;49.006;9.060;2024-02-04T05:22:32;8.20;99.90
648;DHT22;75315;49.006;9.060;2024-02-04T05:25:00;8.20;99.90
648;DHT22;75315;49.006;9.060;2024-02-04T05:27:28;8.10;99.90
648;DHT22;75315;49.006;9.060;2024-02-04T05:29:55;8.20;99.90
648;DHT22;75315;49.006;9.060;2024-02-04T05:32:23;8.20;99.90
648;DHT22;75315;49.006;9.060;2024-02-04T05:34:50;8.30;99.90
648;DHT22;75315;49.006;9.060;2024-02-04T05:37:17;8.30;99.90
648;DHT22;75315;49.006;9.060;2024-02-04T05:39:45;8.30;99.90
648;DHT22;75315;49.006;9.060;2024-02-04T05:42:12;8.30;99.90
648;DHT22;75315;49.006;9.060;2024-02-04T05:44:40;8.30;99.90
648;DHT22;75315;49.006;9.060;2024-02-04T05:47:07;8.30;99.90
648;DHT22;75315;49.006;9.060;2024-02-04T05:49:34;8.30;99.90
648;DHT22;75315;49.006;9.060;2024-02-04T05:52:02;8.30;99.90
648;DHT22;75315;49.006;9.060;2024-02-04T05:54:30;8.30;99.90
648;DHT22;75315;49.006;9.060;2024-02-04T05:56:57;8.30;99.90
648;DHT22;75315;49.006;9.060;2024-02-04T05:59:25;8.30;99.90
648;DHT22;75315;49.006;9.060;2024-02-04T06:01:52;8.30;99.90
648;DHT22;75315;49.006;9.060;2024-02-04T06:04:20;8.30;99.90
648;DHT22;75315;49.006;9.060;2024-02-04T06:06:48;8.30;99.90
648;DHT22;75315;49.006;9.060;2024-02-04T06:09:15;8.20;99.90
648;DHT22;75315;49.006;9.060;2024-02-04T06:11:46;8.20;99.90
648;DHT22;75315;49.006;9.060;2024-02-04T06:14:13;8.20;99.90
648;DHT22;75315;49.006;9.060;2024-02-04T06:16:41;8.20;99.90
648;DHT22;75315;49.006;9.060;2024-02-04T06:19:08;8.20;99.90
648;DHT22;75315;49.006;9.060;2024-02-04T06:21:36;8.20;99.90
648;DHT22;75315;49.006;9.060;2024-02-04T06:24:04;8.20;99.90
648;DHT22;75315;49.006;9.060;2024-02-04T06:26:31;8.20;99.90
648;DHT22;75315;49.006;9.060;2024-02-04T06:28:59;8.20;99.90
648;DHT22;75315;49.006;9.060;2024-02-04T06:31:26;8.10;99.90
648;DHT22;75315;49.006;9.060;2024-02-04T06:33:54;8.10;99.90
648;DHT22;75315;49.006;9.060;2024-02-04T06:36:21;8.20;99.90
648;DHT22;75315;49.006;9.060;2024-02-04T06:38:49;8.00;99.90
648;DHT22;75315;49.006;9.060;2024-02-04T06:41:16;8.10;99.90
648;DHT22;75315;49.006;9.060;2024-02-04T06:43:43;8.20;99.90
648;DHT22;75315;49.006;9.060;2024-02-04T06:46:11;8.20;99.90
648;DHT22;75315;49.006;9.060;2024-02-04T06:48:38;8.20;99.90
648;DHT22;75315;49.006;9.060;2024-02-04T06:51:06;8.20;99.90
648;DHT22;75315;49.006;9.060;2024-02-04T06:53:33;8.20;99.90
648;DHT22;75315;49.006;9.060;2024-02-04T06:56:01;8.30;99.90
648;DHT22;75315;49.006;9.060;2024-02-04T06:58:28;8.20;99.90
648;DHT22;75315;49.006;9.060;2024-02-04T07:00:55;8.20;99.90
648;DHT22;75315;49.006;9.060;2024-02-04T07:03:23;8.20;99.90
648;DHT22;75315;49.006;9.060;2024-02-04T07:05:50;8.30;99.90
648;DHT22;75315;49.006;9.060;2024-02-04T07:08:18;8.40;99.90
648;DHT22;75315;49.006;9.060;2024-02-04T07:10:45;8.30;99.90
648;DHT22;75315;49.006;9.060;2024-02-04T07:13:12;8.30;99.90
648;DHT22;75315;49.006;9.060;2024-02-04T07:15:40;8.30;99.90
648;DHT22;75315;49.006;9.060;2024-02-04T07:18:07;8.30;99.90
648;DHT22;75315;49.006;9.060;2024-02-04T07:20:35;8.30;99.90
648;DHT22;75315;49.006;9.060;2024-02-04T07:23:03;8.30;99.90
648;DHT22;75315;49.006;9.060;2024-02-04T07:25:31;8.30;99.90
648;DHT22;75315;49.006;9.060;2024-02-04T07:27:59;8.50;99.90
648;DHT22;75315;49.006;9.060;2024-02-04T07:30:27;8.40;99.90
648;DHT22;75315;49.006;9.060;2024-02-04T07:32:55;8.40;99.90
648;DHT22;75315;49.006;9.060;2024-02-04T07:35:22;8.40;99.90
648;DHT22;75315;49.006;9.060;2024-02-04T07:37:50;8.40;99.90
648;DHT22;75315;49.006;9.060;2024-02-04T07:40:17;8.40;99.90
648;DHT22;75315;49.006;9.060;2024-02-04T07:42:45;8.40;99.90
648;DHT22;75315;49.006;9.060;2024-02-04T07:45:12;8.40;99.90
648;DHT22;75315;49.006;9.060;2024-02-04T07:47:40;8.40;99.90
648;DHT22;75315;49.006;9.060;2024-02-04T07:50:08;8.40;99.90
648;DHT22;75315;49.006;9.060;2024-02-04T07:52:35;8.40;99.90
648;DHT22;75315;49.006;9.060;2024-02-04T07:55:03;8.40;99.90
648;DHT22;75315;49.006;9.060;2024-02-04T07:57:31;8.40;99.90
648;DHT22;75315;49.006;9.060;2024-02-04T07:59:59;8.40;99.90
648;DHT22;75315;49.006;9.060;2024-02-04T08:02:38;8.40;99.90
648;DHT22;75315;49.006;9.060;2024-02-04T08:05:06;8.30;99.90
648;DHT22;75315;49.006;9.060;2024-02-04T08:07:34;8.40;99.90
648;DHT22;75315;49.006;9.060;2024-02-04T08:10:02;8.40;99.90
648;DHT22;75315;49.006;9.060;2024-02-04T08:12:29;8.40;99.90
648;DHT22;75315;49.006;9.060;2024-02-04T08:14:56;8.30;99.90
648;DHT22;75315;49.006;9.060;2024-02-04T08:17:24;8.40;99.90
648;DHT22;75315;49.006;9.060;2024-02-04T08:19:51;8.30;99.90
648;DHT22;75315;49.006;9.060;2024-02-04T08:22:19;8.50;99.90
648;DHT22;75315;49.006;9.060;2024-02-04T08:24:47;8.40;99.90
648;DHT22;75315;49.006;9.060;2024-02-04T08:27:15;8.50;99.90
648;DHT22;75315;49.006;9.060;2024-02-04T08:29:43;8.50;99.90
648;DHT22;75315;49.006;9.060;2024-02-04T08:32:10;8.50;99.90
648;DHT22;75315;49.006;9.060;2024-02-04T08:34:40;8.40;99.90
648;DHT22;75315;49.006;9.060;2024-02-04T08:37:07;8.50;99.90
648;DHT22;75315;49.006;9.060;2024-02-04T08:39:35;8.50;99.90
648;DHT22;75315;49.006;9.060;2024-02-04T08:42:02;8.50;99.90
648;DHT22;75315;49.006;9.060;2024-02-04T08:44:30;8.60;99.90
648;DHT22;75315;49.006;9.060;2024-02-04T08:47:05;8.70;99.90
648;DHT22;75315;49.006;9.060;2024-02-04T08:49:37;8.70;99.90
648;DHT22;75315;49.006;9.060;2024-02-04T08:52:05;8.60;99.90
648;DHT22;75315;49.006;9.060;2024-02-04T08:54:33;8.60;99.90
648;DHT22;75315;49.006;9.060;2024-02-04T08:57:00;8.70;99.90
648;DHT22;75315;49.006;9.060;2024-02-04T08:59:27;8.80;99.90
648;DHT22;75315;49.006;9.060;2024-02-04T09:01:55;8.70;99.90
648;DHT22;75315;49.006;9.060;2024-02-04T09:04:22;8.80;99.90
648;DHT22;75315;49.006;9.060;2024-02-04T09:06:50;8.70;99.90
648;DHT22;75315;49.006;9.060;2024-02-04T09:09:17;8.80;99.90
648;DHT22;75315;49.006;9.060;2024-02-04T09:11:45;8.70;99.90
648;DHT22;75315;49.006;9.060;2024-02-04T09:14:12;8.90;99.90
648;DHT22;75315;49.006;9.060;2024-02-04T09:16:40;8.80;99.90
648;DHT22;75315;49.006;9.060;2024-02-04T09:19:08;8.90;99.90
648;DHT22;75315;49.006;9.060;2024-02-04T09:21:35;8.90;99.90
648;DHT22;75315;49.006;9.060;2024-02-04T09:24:03;8.90;99.90
648;DHT22;75315;49.006;9.060;2024-02-04T09:26:30;8.90;99.90
648;DHT22;75315;49.006;9.060;2024-02-04T09:28:58;9.10;99.90
648;DHT22;75315;49.006;9.060;2024-02-04T09:31:25;9.10;99.90
648;DHT22;75315;49.006;9.060;2024-02-04T09:33:53;9.20;99.90
648;DHT22;75315;49.006;9.060;2024-02-04T09:36:20;9.30;99.90
648;DHT22;75315;49.006;9.060;2024-02-04T09:38:50;9.40;99.90
648;DHT22;75315;49.006;9.060;2024-02-04T09:41:17;9.30;99.90
648;DHT22;75315;49.006;9.060;2024-02-04T09:43:45;9.60;99.90
648;DHT22;75315;49.006;9.060;2024-02-04T09:46:13;9.40;99.90
648;DHT22;75315;49.006;9.060;2024-02-04T09:48:41;9.50;99.90
648;DHT22;75315;49.006;9.060;2024-02-04T09:51:11;9.40;99.90
648;DHT22;75315;49.006;9.060;2024-02-04T09:53:45;9.70;99.90
648;DHT22;75315;49.006;9.060;2024-02-04T09:56:15;9.50;99.90
648;DHT22;75315;49.006;9.060;2024-02-04T09:58:45;9.50;99.90
648;DHT22;75315;49.006;9.060;2024-02-04T10:01:13;9.60;99.90
648;DHT22;75315;49.006;9.060;2024-02-04T10:03:43;9.50;99.90
648;DHT22;75315;49.006;9.060;2024-02-04T10:06:10;9.60;99.90
648;DHT22;75315;49.006;9.060;2024-02-04T10:08:38;9.70;95.20
648;DHT22;75315;49.006;9.060;2024-02-04T10:11:06;9.60;88.10
648;DHT22;75315;49.006;9.060;2024-02-04T10:16:13;9.60;81.00
648;DHT22;75315;49.006;9.060;2024-02-04T10:18:47;9.50;72.30
648;DHT22;75315;49.006;9.060;2024-02-04T10:21:22;9.50;68.70
648;DHT22;75315;49.006;9.060;2024-02-04T10:23:51;9.50;59.30
648;DHT22;75315;49.006;9.060;2024-02-04T10:26:18;9.60;62.10
648;DHT22;75315;49.006;9.060;2024-02-04T10:28:48;9.60;59.20
648;DHT22;75315;49.006;9.060;2024-02-04T10:31:16;9.50;59.00
648;DHT22;75315;49.006;9.060;2024-02-04T10:33:44;9.50;59.00
648;DHT22;75315;49.006;9.060;2024-02-04T10:36:12;9.50;53.10
648;DHT22;75315;49.006;9.060;2024-02-04T10:38:40;9.50;50.60
648;DHT22;75315;49.006;9.060;2024-02-04T10:41:08;9.50;46.60
648;DHT22;75315;49.006;9.060;2024-02-04T10:43:39;9.60;44.00
648;DHT22;75315;49.006;9.060;2024-02-04T10:46:18;9.50;31.80
648;DHT22;75315;49.006;9.060;2024-02-04T10:48:52;9.50;32.40
648;DHT22;75315;49.006;9.060;2024-02-04T10:51:25;9.50;34.00
648;DHT22;75315;49.006;9.060;2024-02-04T10:53:55;9.30;29.40
648;DHT22;75315;49.006;9.060;2024-02-04T10:56:42;9.50;25.60
648;DHT22;75315;49.006;9.060;2024-02-04T10:59:15;9.40;26.50
648;DHT22;75315;49.006;9.060;2024-02-04T11:01:46;9.50;23.90
648;DHT22;75315;49.006;9.060;2024-02-04T11:04:17;9.50;19.20
648;DHT22;75315;49.006;9.060;2024-02-04T11:06:46;9.40;20.60
648;DHT22;75315;49.006;9.060;2024-02-04T11:09:14;9.60;24.60
648;DHT22;75315;49.006;9.060;2024-02-04T11:11:44;9.50;20.70
648;DHT22;75315;49.006;9.060;2024-02-04T11:14:13;9.50;18.90
648;DHT22;75315;49.006;9.060;2024-02-04T11:22:25;9.40;17.90
648;DHT22;75315;49.006;9.060;2024-02-04T11:27:28;9.40;26.20
648;DHT22;75315;49.006;9.060;2024-02-04T11:29:56;9.40;27.20
648;DHT22;75315;49.006;9.060;2024-02-04T11:32:24;9.50;26.70
648;DHT22;75315;49.006;9.060;2024-02-04T11:34:54;9.50;32.80
648;DHT22;75315;49.006;9.060;2024-02-04T11:37:23;9.70;28.20
648;DHT22;75315;49.006;9.060;2024-02-04T11:39:54;9.70;22.40
648;DHT22;75315;49.006;9.060;2024-02-04T11:42:32;9.70;22.50
648;DHT22;75315;49.006;9.060;2024-02-04T11:45:11;9.90;28.20
648;DHT22;75315;49.006;9.060;2024-02-04T11:47:40;10.00;14.70
648;DHT22;75315;49.006;9.060;2024-02-04T11:50:08;10.00;23.40
648;DHT22;75315;49.006;9.060;2024-02-04T11:52:39;10.10;11.10
648;DHT22;75315;49.006;9.060;2024-02-04T11:55:13;10.20;9.90
648;DHT22;75315;49.006;9.060;2024-02-04T11:57:41;10.00;6.00
648;DHT22;75315;49.006;9.060;2024-02-04T12:00:09;10.20;1.00
648;DHT22;75315;49.006;9.060;2024-02-04T12:02:38;10.20;2.60
648;DHT22;75315;49.006;9.060;2024-02-04T12:05:06;10.10;1.00
648;DHT22;75315;49.006;9.060;2024-02-04T12:07:34;10.10;1.00
648;DHT22;75315;49.006;9.060;2024-02-04T12:10:03;10.10;1.00
648;DHT22;75315;49.006;9.060;2024-02-04T12:12:33;10.10;1.00
648;DHT22;75315;49.006;9.060;2024-02-04T12:15:01;10.20;1.00
648;DHT22;75315;49.006;9.060;2024-02-04T12:17:28;10.30;1.00
648;DHT22;75315;49.006;9.060;2024-02-04T12:19:56;10.30;1.00
648;DHT22;75315;49.006;9.060;2024-02-04T12:22:24;10.40;1.00
648;DHT22;75315;49.006;9.060;2024-02-04T12:24:51;10.40;1.00
648;DHT22;75315;49.006;9.060;2024-02-04T12:27:19;10.30;1.00
648;DHT22;75315;49.006;9.060;2024-02-04T12:29:51;10.40;1.00
648;DHT22;75315;49.006;9.060;2024-02-04T12:32:18;10.40;1.00
648;DHT22;75315;49.006;9.060;2024-02-04T12:34:47;10.40;1.00
648;DHT22;75315;49.006;9.060;2024-02-04T12:37:15;10.40;1.00
648;DHT22;75315;49.006;9.060;2024-02-04T12:39:42;10.30;1.00
648;DHT22;75315;49.006;9.060;2024-02-04T12:42:10;10.30;1.00
648;DHT22;75315;49.006;9.060;2024-02-04T12:44:50;10.10;1.00
648;DHT22;75315;49.006;9.060;2024-02-04T12:47:19;10.20;1.00
648;DHT22;75315;49.006;9.060;2024-02-04T12:49:47;10.20;1.00
648;DHT22;75315;49.006;9.060;2024-02-04T12:52:15;10.30;1.00
648;DHT22;75315;49.006;9.060;2024-02-04T12:54:47;10.20;1.00
648;DHT22;75315;49.006;9.060;2024-02-04T12:57:24;10.40;1.00
648;DHT22;75315;49.006;9.060;2024-02-04T12:59:51;10.40;1.00
648;DHT22;75315;49.006;9.060;2024-02-04T13:02:19;10.30;1.00
648;DHT22;75315;49.006;9.060;2024-02-04T13:04:46;10.30;1.00
648;DHT22;75315;49.006;9.060;2024-02-04T13:07:14;10.30;1.00
648;DHT22;75315;49.006;9.060;2024-02-04T13:09:44;10.50;1.00
648;DHT22;75315;49.006;9.060;2024-02-04T13:12:14;10.50;1.00
648;DHT22;75315;49.006;9.060;2024-02-04T13:14:42;10.20;1.00
648;DHT22;75315;49.006;9.060;2024-02-04T13:17:10;10.20;1.00
648;DHT22;75315;49.006;9.060;2024-02-04T13:19:38;10.00;1.00
648;DHT22;75315;49.006;9.060;2024-02-04T13:22:07;9.80;1.00
648;DHT22;75315;49.006;9.060;2024-02-04T13:24:37;9.60;1.00
648;DHT22;75315;49.006;9.060;2024-02-04T13:27:04;9.70;1.00
648;DHT22;75315;49.006;9.060;2024-02-04T13:29:35;9.40;1.00
648;DHT22;75315;49.006;9.060;2024-02-04T13:32:02;9.60;1.00
648;DHT22;75315;49.006;9.060;2024-02-04T13:34:30;9.80;1.00
648;DHT22;75315;49.006;9.060;2024-02-04T13:36:58;9.40;1.00
648;DHT22;75315;49.006;9.060;2024-02-04T13:39:25;9.50;1.00
648;DHT22;75315;49.006;9.060;2024-02-04T13:41:52;9.40;1.00
648;DHT22;75315;49.006;9.060;2024-02-04T13:44:20;9.40;1.00
648;DHT22;75315;49.006;9.060;2024-02-04T13:46:48;9.40;1.00
648;DHT22;75315;49.006;9.060;2024-02-04T13:49:15;9.30;1.00
648;DHT22;75315;49.006;9.060;2024-02-04T13:51:43;9.40;1.00
648;DHT22;75315;49.006;9.060;2024-02-04T13:54:12;9.30;1.00
648;DHT22;75315;49.006;9.060;2024-02-04T13:56:45;9.40;1.00
648;DHT22;75315;49.006;9.060;2024-02-04T13:59:13;9.20;1.00
648;DHT22;75315;49.006;9.060;2024-02-04T14:01:41;9.40;1.00
648;DHT22;75315;49.006;9.060;2024-02-04T14:04:08;9.40;1.00
648;DHT22;75315;49.006;9.060;2024-02-04T14:06:36;9.30;1.00
648;DHT22;75315;49.006;9.060;2024-02-04T14:09:04;9.40;1.00
648;DHT22;75315;49.006;9.060;2024-02-04T14:11:32;9.30;1.00
648;DHT22;75315;49.006;9.060;2024-02-04T14:14:00;9.20;1.00
648;DHT22;75315;49.006;9.060;2024-02-04T14:16:27;9.40;1.00
648;DHT22;75315;49.006;9.060;2024-02-04T14:18:54;9.50;1.00
648;DHT22;75315;49.006;9.060;2024-02-04T14:21:27;9.40;1.00
648;DHT22;75315;49.006;9.060;2024-02-04T14:23:55;9.40;1.00
648;DHT22;75315;49.006;9.060;2024-02-04T14:26:22;9.20;1.00
648;DHT22;75315;49.006;9.060;2024-02-04T14:28:50;9.30;1.20
648;DHT22;75315;49.006;9.060;2024-02-04T14:31:17;9.40;3.80
648;DHT22;75315;49.006;9.060;2024-02-04T14:33:45;9.30;1.20
648;DHT22;75315;49.006;9.060;2024-02-04T14:36:15;9.30;7.60
648;DHT22;75315;49.006;9.060;2024-02-04T14:38:42;9.20;7.70
648;DHT22;75315;49.006;9.060;2024-02-04T14:41:10;9.10;10.40
648;DHT22;75315;49.006;9.060;2024-02-04T14:43:37;9.10;18.00
648;DHT22;75315;49.006;9.060;2024-02-04T14:46:05;9.10;25.10
648;DHT22;75315;49.006;9.060;2024-02-04T14:48:32;9.00;24.80
648;DHT22;75315;49.006;9.060;2024-02-04T14:51:00;9.00;25.10
648;DHT22;75315;49.006;9.060;2024-02-04T14:53:27;9.00;28.60
648;DHT22;75315;49.006;9.060;2024-02-04T14:55:55;9.00;34.60
648;DHT22;75315;49.006;9.060;2024-02-04T14:58:23;9.10;36.30
648;DHT22;75315;49.006;9.060;2024-02-04T15:00:51;9.10;38.90
648;DHT22;75315;49.006;9.060;2024-02-04T15:03:19;8.90;39.30
648;DHT22;75315;49.006;9.060;2024-02-04T15:05:46;8.90;41.50
648;DHT22;75315;49.006;9.060;2024-02-04T15:08:14;8.80;48.50
648;DHT22;75315;49.006;9.060;2024-02-04T15:10:41;8.90;53.10
648;DHT22;75315;49.006;9.060;2024-02-04T15:13:09;9.00;58.10
648;DHT22;75315;49.006;9.060;2024-02-04T15:15:37;8.90;59.20
648;DHT22;75315;49.006;9.060;2024-02-04T15:18:05;8.90;58.70
648;DHT22;75315;49.006;9.060;2024-02-04T15:20:36;8.90;58.60
648;DHT22;75315;49.006;9.060;2024-02-04T15:23:04;8.80;58.60
648;DHT22;75315;49.006;9.060;2024-02-04T15:25:33;8.80;58.70
648;DHT22;75315;49.006;9.060;2024-02-04T15:28:00;8.90;59.20
648;DHT22;75315;49.006;9.060;2024-02-04T15:30:28;8.80;58.50
648;DHT22;75315;49.006;9.060;2024-02-04T15:32:57;8.80;60.20
648;DHT22;75315;49.006;9.060;2024-02-04T15:35:25;8.80;58.80
648;DHT22;75315;49.006;9.060;2024-02-04T15:37:52;8.80;61.10
648;DHT22;75315;49.006;9.060;2024-02-04T15:40:20;8.80;59.60
648;DHT22;75315;49.006;9.060;2024-02-04T15:42:49;8.80;66.90
648;DHT22;75315;49.006;9.060;2024-02-04T15:45:16;8.90;67.30
648;DHT22;75315;49.006;9.060;2024-02-04T15:47:49;8.90;68.00
648;DHT22;75315;49.006;9.060;2024-02-04T15:50:22;8.80;68.00
648;DHT22;75315;49.006;9.060;2024-02-04T15:52:50;8.70;77.40
648;DHT22;75315;49.006;9.060;2024-02-04T15:55:18;8.80;81.80
648;DHT22;75315;49.006;9.060;2024-02-04T15:57:51;8.70;82.30
648;DHT22;75315;49.006;9.060;2024-02-04T16:00:20;8.70;85.20
648;DHT22;75315;49.006;9.060;2024-02-04T16:02:57;8.70;85.60
648;DHT22;75315;49.006;9.060;2024-02-04T16:05:25;8.70;88.30
648;DHT22;75315;49.006;9.060;2024-02-04T16:07:52;8.80;85.90
648;DHT22;75315;49.006;9.060;2024-02-04T16:10:21;8.60;82.70
648;DHT22;75315;49.006;9.060;2024-02-04T16:12:58;8.70;85.70
648;DHT22;75315;49.006;9.060;2024-02-04T16:15:28;8.70;84.30
648;DHT22;75315;49.006;9.060;2024-02-04T16:17:57;8.70;87.60
648;DHT22;75315;49.006;9.060;2024-02-04T16:20:27;8.70;90.00
648;DHT22;75315;49.006;9.060;2024-02-04T16:22:56;8.80;86.80
648;DHT22;75315;49.006;9.060;2024-02-04T16:25:23;8.70;88.00
648;DHT22;75315;49.006;9.060;2024-02-04T16:27:57;8.70;84.90
648;DHT22;75315;49.006;9.060;2024-02-04T16:30:25;8.80;85.10
648;DHT22;75315;49.006;9.060;2024-02-04T16:32:52;8.70;81.40
648;DHT22;75315;49.006;9.060;2024-02-04T16:35:20;8.70;82.50
648;DHT22;75315;49.006;9.060;2024-02-04T16:37:47;8.70;85.50
648;DHT22;75315;49.006;9.060;2024-02-04T16:40:15;8.80;87.80
648;DHT22;75315;49.006;9.060;2024-02-04T16:42:43;8.80;86.40